Time;durP1;ratioP1;P1;durP2;ratioP2;P2;SDS_P1;SDS_P2;PMS_P1;PMS_P2;Temp;Humidity;BMP_temperature;BMP_pressure;BME280_temperature;BME280_humidity;BME280_pressure;Samples;Min_cycle;Max_cycle;Signal;HPM_P1;HPM_P2
2021/07/31 00:00:23;;;;;;;8.57;3.97;;;;;;;;;;5071986;28;20025;-51
2021/07/31 00:02:52;;;;;;;8.95;4.38;;;;;;;;;;5064316;28;20021;-51
2021/07/31 00:05:18;;;;;;;8.73;4.05;;;;;;;;;;5072690;28;20040;-51
2021/07/31 00:07:44;;;;;;;6.85;3.60;;;;;;;;;;5072316;28;20024;-51
2021/07/31 00:10:11;;;;;;;9.10;4.45;;;;;;;;;;5073118;28;20024;-52
2021/07/31 00:12:37;;;;;;;6.47;3.83;;;;;;;;;;5071838;28;20012;-51
2021/07/31 00:15:03;;;;;;;9.38;3.72;;;;;;;;;;5072752;28;20024;-52
2021/07/31 00:17:29;;;;;;;6.45;3.55;;;;;;;;;;5072829;28;20036;-51
2021/07/31 00:19:55;;;;;;;9.35;3.58;;;;;;;;;;5072982;28;20066;-51
2021/07/31 00:22:21;;;;;;;8.43;3.80;;;;;;;;;;5071427;28;20461;-52
2021/07/31 00:24:47;;;;;;;12.93;4.28;;;;;;;;;;5072794;28;20039;-52
2021/07/31 00:27:13;;;;;;;7.57;3.92;;;;;;;;;;5073177;28;20012;-52
2021/07/31 00:29:39;;;;;;;8.93;4.65;;;;;;;;;;5072318;28;20450;-51
2021/07/31 00:32:06;;;;;;;6.28;3.33;;;;;;;;;;5071928;28;20020;-51
2021/07/31 00:34:32;;;;;;;10.02;3.80;;;;;;;;;;5068162;28;20055;-51
2021/07/31 00:36:58;;;;;;;7.10;3.92;;;;;;;;;;5052243;28;20068;-51
2021/07/31 00:39:24;;;;;;;7.13;3.95;;;;;;;;;;5052636;28;20017;-51
2021/07/31 00:41:50;;;;;;;6.28;3.60;;;;;;;;;;5051801;28;20031;-51
2021/07/31 00:44:16;;;;;;;7.88;3.42;;;;;;;;;;5052962;28;20029;-51
2021/07/31 00:46:44;;;;;;;11.43;3.33;;;;;;;;;;5069088;28;20091;-51
2021/07/31 00:49:10;;;;;;;12.25;2.90;;;;;;;;;;5076011;28;20017;-51
2021/07/31 00:51:36;;;;;;;8.23;3.75;;;;;;;;;;5075131;28;20429;-51
2021/07/31 00:54:02;;;;;;;7.53;3.55;;;;;;;;;;5076215;28;20032;-51
2021/07/31 00:56:28;;;;;;;6.20;3.45;;;;;;;;;;5076059;28;20464;-51
2021/07/31 00:58:54;;;;;;;6.18;4.00;;;;;;;;;;5076084;28;20025;-51
2021/07/31 01:01:20;;;;;;;6.15;3.25;;;;;;;;;;5075327;28;20021;-51
2021/07/31 01:03:47;;;;;;;12.85;3.67;;;;;;;;;;5075749;28;20070;-51
2021/07/31 01:06:13;;;;;;;9.73;3.42;;;;;;;;;;5076557;28;20038;-51
2021/07/31 01:08:39;;;;;;;6.18;3.65;;;;;;;;;;5076064;28;20116;-51
2021/07/31 01:11:05;;;;;;;7.13;3.55;;;;;;;;;;5075274;28;20048;-52
2021/07/31 01:13:31;;;;;;;9.02;3.92;;;;;;;;;;5075758;28;20071;-51
2021/07/31 01:15:59;;;;;;;9.27;3.78;;;;;;;;;;5076042;28;20036;-51
2021/07/31 01:18:25;;;;;;;5.72;3.47;;;;;;;;;;5075444;28;20029;-51
2021/07/31 01:20:51;;;;;;;8.23;4.63;;;;;;;;;;5074724;28;20846;-52
2021/07/31 01:23:17;;;;;;;9.50;4.50;;;;;;;;;;5075626;28;20060;-51
2021/07/31 01:25:43;;;;;;;7.18;3.65;;;;;;;;;;5075700;28;20472;-51
2021/07/31 01:28:09;;;;;;;7.75;4.10;;;;;;;;;;5075713;28;20052;-51
2021/07/31 01:30:35;;;;;;;8.20;4.20;;;;;;;;;;5074479;28;20058;-51
2021/07/31 01:33:01;;;;;;;10.98;3.45;;;;;;;;;;5075355;28;20013;-51
2021/07/31 01:35:27;;;;;;;4.40;3.08;;;;;;;;;;5063369;28;20029;-51
2021/07/31 01:37:53;;;;;;;6.53;3.63;;;;;;;;;;5055220;28;20033;-51
2021/07/31 01:40:19;;;;;;;12.18;4.00;;;;;;;;;;5055039;28;20033;-51
2021/07/31 01:42:45;;;;;;;11.68;3.85;;;;;;;;;;5066987;28;20036;-51
2021/07/31 01:45:11;;;;;;;10.55;3.13;;;;;;;;;;5075348;28;20055;-51
2021/07/31 01:47:37;;;;;;;6.43;3.17;;;;;;;;;;5074925;28;20024;-51
2021/07/31 01:50:03;;;;;;;8.35;3.47;;;;;;;;;;5075315;28;20457;-51
2021/07/31 01:52:29;;;;;;;9.52;4.15;;;;;;;;;;5074622;28;20110;-51
2021/07/31 01:54:55;;;;;;;12.20;3.35;;;;;;;;;;5075471;28;20055;-51
2021/07/31 01:57:21;;;;;;;4.15;2.63;;;;;;;;;;5074762;28;20442;-51
2021/07/31 01:59:47;;;;;;;5.78;3.08;;;;;;;;;;5074645;28;20024;-51
2021/07/31 02:02:13;;;;;;;6.88;3.40;;;;;;;;;;5073239;28;20028;-51
2021/07/31 02:04:39;;;;;;;10.77;3.22;;;;;;;;;;5074308;28;20064;-52
2021/07/31 02:07:05;;;;;;;6.72;3.13;;;;;;;;;;5067536;28;20033;-51
2021/07/31 02:09:31;;;;;;;5.68;3.50;;;;;;;;;;5074669;28;20027;-51
2021/07/31 02:11:57;;;;;;;6.07;3.25;;;;;;;;;;5073738;28;20111;-51
2021/07/31 02:14:23;;;;;;;8.20;3.40;;;;;;;;;;5074669;28;20454;-51
2021/07/31 02:16:49;;;;;;;6.72;3.33;;;;;;;;;;5074600;28;20056;-51
2021/07/31 02:19:15;;;;;;;10.20;3.30;;;;;;;;;;5074837;28;20079;-51
2021/07/31 02:21:41;;;;;;;9.82;2.92;;;;;;;;;;5073542;28;20035;-51
2021/07/31 02:24:07;;;;;;;6.65;3.30;;;;;;;;;;5074737;28;20468;-51
2021/07/31 02:26:33;;;;;;;15.02;3.92;;;;;;;;;;5074724;28;20031;-52
2021/07/31 02:28:59;;;;;;;5.03;2.65;;;;;;;;;;5074044;28;20467;-52
2021/07/31 02:31:25;;;;;;;8.15;3.70;;;;;;;;;;5073229;28;20024;-51
2021/07/31 02:33:51;;;;;;;5.25;2.90;;;;;;;;;;5074547;28;20016;-52
2021/07/31 02:36:17;;;;;;;7.80;3.33;;;;;;;;;;5055056;28;20114;-51
2021/07/31 02:38:43;;;;;;;8.82;3.20;;;;;;;;;;5054718;28;20017;-51
2021/07/31 02:41:09;;;;;;;7.32;3.78;;;;;;;;;;5053055;28;20036;-51
2021/07/31 02:43:35;;;;;;;7.07;3.53;;;;;;;;;;5053566;28;20029;-51
2021/07/31 02:46:07;;;;;;;5.18;3.15;;;;;;;;;;5054193;28;20025;-51
2021/07/31 02:48:37;;;;;;;7.22;3.92;;;;;;;;;;5054112;28;20025;-51
2021/07/31 02:51:04;;;;;;;4.20;2.60;;;;;;;;;;5053017;28;20479;-51
2021/07/31 02:53:30;;;;;;;7.05;3.20;;;;;;;;;;5061388;28;20036;-51
2021/07/31 02:55:56;;;;;;;10.95;3.25;;;;;;;;;;5069815;28;20074;-51
2021/07/31 02:58:23;;;;;;;21.38;4.15;;;;;;;;;;5071663;28;20039;-51
2021/07/31 03:00:49;;;;;;;8.85;3.85;;;;;;;;;;5068256;28;20324;-51
2021/07/31 03:03:14;;;;;;;10.27;3.53;;;;;;;;;;5073660;28;20107;-51
2021/07/31 03:05:40;;;;;;;11.35;2.83;;;;;;;;;;5073283;28;20019;-51
2021/07/31 03:08:06;;;;;;;6.22;2.85;;;;;;;;;;5072887;28;20029;-51
2021/07/31 03:10:32;;;;;;;6.15;3.38;;;;;;;;;;5072974;28;20054;-51
2021/07/31 03:12:59;;;;;;;4.68;3.15;;;;;;;;;;5073719;28;20025;-51
2021/07/31 03:15:24;;;;;;;8.20;3.30;;;;;;;;;;5073617;28;20150;-51
2021/07/31 03:17:51;;;;;;;16.65;3.70;;;;;;;;;;5072925;28;20119;-51
2021/07/31 03:20:17;;;;;;;13.68;3.63;;;;;;;;;;5073270;28;20111;-51
2021/07/31 03:22:43;;;;;;;7.68;3.72;;;;;;;;;;5071933;28;20043;-51
2021/07/31 03:25:09;;;;;;;11.55;4.50;;;;;;;;;;5073617;28;20021;-51
2021/07/31 03:27:35;;;;;;;14.90;4.13;;;;;;;;;;5073305;28;20040;-51
2021/07/31 03:30:02;;;;;;;9.07;3.40;;;;;;;;;;5073122;28;20017;-51
2021/07/31 03:32:28;;;;;;;10.18;3.90;;;;;;;;;;5072195;28;20024;-51
2021/07/31 03:34:54;;;;;;;4.65;3.15;;;;;;;;;;5066134;28;20439;-51
2021/07/31 03:37:20;;;;;;;4.80;3.42;;;;;;;;;;5052674;28;20082;-51
2021/07/31 03:39:46;;;;;;;7.80;3.60;;;;;;;;;;5053467;28;20387;-52
2021/07/31 03:42:12;;;;;;;6.50;3.90;;;;;;;;;;5051817;28;20025;-51
2021/07/31 03:44:38;;;;;;;5.85;3.88;;;;;;;;;;5053081;28;20047;-51
2021/07/31 03:47:04;;;;;;;7.43;4.22;;;;;;;;;;5053158;28;20131;-51
2021/07/31 03:49:32;;;;;;;5.18;3.03;;;;;;;;;;5052822;28;20032;-52
2021/07/31 03:51:58;;;;;;;9.00;3.83;;;;;;;;;;5051903;28;20133;-51
2021/07/31 03:54:24;;;;;;;5.45;3.55;;;;;;;;;;5052592;28;20438;-51
2021/07/31 03:56:50;;;;;;;6.10;3.58;;;;;;;;;;5052991;28;20439;-51
2021/07/31 03:59:16;;;;;;;6.82;3.38;;;;;;;;;;5052683;28;20029;-51
2021/07/31 04:01:42;;;;;;;11.52;4.13;;;;;;;;;;5052128;28;20060;-51
2021/07/31 04:04:08;;;;;;;6.40;3.25;;;;;;;;;;5052108;28;20407;-51
2021/07/31 04:06:34;;;;;;;8.10;3.78;;;;;;;;;;5062392;28;20373;-51
2021/07/31 04:09:00;;;;;;;9.82;3.83;;;;;;;;;;5072975;28;20434;-51
2021/07/31 04:11:26;;;;;;;8.95;3.58;;;;;;;;;;5070788;28;20053;-51
2021/07/31 04:13:54;;;;;;;6.10;3.67;;;;;;;;;;5068337;28;20025;-51
2021/07/31 04:16:20;;;;;;;6.45;3.10;;;;;;;;;;5072487;28;20036;-51
2021/07/31 04:18:46;;;;;;;9.90;2.95;;;;;;;;;;5072288;28;20035;-51
2021/07/31 04:21:12;;;;;;;3.90;2.15;;;;;;;;;;5073633;28;20024;-52
2021/07/31 04:23:38;;;;;;;4.38;2.30;;;;;;;;;;5076879;28;20024;-51
2021/07/31 04:26:14;;;;;;;3.25;1.75;;;;;;;;;;5076663;28;20025;-51
2021/07/31 04:28:40;;;;;;;3.90;1.73;;;;;;;;;;5076589;28;20028;-51
2021/07/31 04:31:12;;;;;;;5.47;1.75;;;;;;;;;;5076313;28;20037;-51
2021/07/31 04:33:39;;;;;;;7.13;1.73;;;;;;;;;;5076167;28;20331;-51
2021/07/31 04:36:06;;;;;;;4.97;1.55;;;;;;;;;;5059457;28;20052;-52
2021/07/31 04:38:32;;;;;;;8.52;2.03;;;;;;;;;;5056112;28;20025;-51
2021/07/31 04:40:58;;;;;;;1.70;1.15;;;;;;;;;;5055827;28;20108;-51
2021/07/31 04:43:24;;;;;;;3.97;1.40;;;;;;;;;;5056157;28;20025;-51
2021/07/31 04:45:50;;;;;;;4.32;1.83;;;;;;;;;;5056492;28;20055;-51
2021/07/31 04:48:16;;;;;;;3.85;1.88;;;;;;;;;;5055747;28;20407;-51
2021/07/31 04:50:42;;;;;;;7.80;1.88;;;;;;;;;;5055598;28;20048;-51
2021/07/31 04:53:08;;;;;;;3.63;1.75;;;;;;;;;;5056085;28;20352;-51
2021/07/31 04:55:34;;;;;;;2.75;1.42;;;;;;;;;;5060445;28;20081;-51
2021/07/31 04:58:00;;;;;;;1.80;1.40;;;;;;;;;;5071002;28;20047;-51
2021/07/31 05:00:26;;;;;;;4.03;1.48;;;;;;;;;;5070831;28;20032;-51
2021/07/31 05:02:52;;;;;;;3.28;1.48;;;;;;;;;;5074875;28;20020;-51
2021/07/31 05:05:18;;;;;;;3.53;1.40;;;;;;;;;;5075740;28;20025;-52
2021/07/31 05:07:44;;;;;;;7.60;1.80;;;;;;;;;;5076332;28;20024;-51
2021/07/31 05:10:10;;;;;;;3.67;1.30;;;;;;;;;;5075167;28;20044;-51
2021/07/31 05:12:36;;;;;;;6.53;1.30;;;;;;;;;;5075552;28;20413;-52
2021/07/31 05:15:02;;;;;;;4.55;1.50;;;;;;;;;;5075701;28;20050;-51
2021/07/31 05:17:28;;;;;;;6.25;1.52;;;;;;;;;;5075822;28;20419;-51
2021/07/31 05:19:54;;;;;;;2.17;1.73;;;;;;;;;;5074836;28;20107;-51
2021/07/31 05:22:20;;;;;;;2.13;1.10;;;;;;;;;;5074849;28;20123;-51
2021/07/31 05:24:53;;;;;;;6.07;1.38;;;;;;;;;;5075331;28;20446;-51
2021/07/31 05:27:19;;;;;;;4.63;1.73;;;;;;;;;;5070260;28;20033;-51
2021/07/31 05:29:45;;;;;;;2.92;1.65;;;;;;;;;;5075251;28;20351;-51
2021/07/31 05:32:11;;;;;;;5.32;1.48;;;;;;;;;;5073674;28;20028;-51
2021/07/31 05:34:38;;;;;;;3.17;1.60;;;;;;;;;;5070254;28;20397;-51
2021/07/31 05:37:04;;;;;;;7.95;1.90;;;;;;;;;;5069789;28;20036;-51
2021/07/31 05:39:33;;;;;;;3.45;1.67;;;;;;;;;;5075543;28;20021;-51
2021/07/31 05:42:02;;;;;;;1.95;1.33;;;;;;;;;;5074815;28;20036;-51
2021/07/31 05:44:28;;;;;;;3.38;1.35;;;;;;;;;;5074997;28;20032;-51
2021/07/31 05:46:54;;;;;;;5.25;1.95;;;;;;;;;;5075355;28;20028;-52
2021/07/31 05:49:20;;;;;;;4.82;1.50;;;;;;;;;;5075049;28;20094;-51
2021/07/31 05:51:46;;;;;;;5.72;1.67;;;;;;;;;;5074039;28;20120;-51
2021/07/31 05:54:12;;;;;;;2.97;1.67;;;;;;;;;;5075233;28;20020;-52
2021/07/31 05:56:38;;;;;;;3.40;1.83;;;;;;;;;;5075180;28;20039;-52
2021/07/31 05:59:04;;;;;;;3.80;1.67;;;;;;;;;;5074753;28;20020;-51
2021/07/31 06:01:35;;;;;;;6.03;2.05;;;;;;;;;;5074534;28;20033;-51
2021/07/31 06:04:01;;;;;;;4.78;2.30;;;;;;;;;;5075325;28;20448;-52
2021/07/31 06:06:27;;;;;;;6.72;1.73;;;;;;;;;;5072053;28;20335;-51
2021/07/31 06:08:53;;;;;;;5.57;2.53;;;;;;;;;;5068193;28;20418;-52
2021/07/31 06:11:19;;;;;;;5.82;2.40;;;;;;;;;;5068499;28;20040;-52
2021/07/31 06:13:45;;;;;;;2.65;1.83;;;;;;;;;;5069843;28;20025;-51
2021/07/31 06:16:11;;;;;;;5.93;2.13;;;;;;;;;;5071394;28;20029;-52
2021/07/31 06:18:39;;;;;;;6.03;1.80;;;;;;;;;;5070321;28;20024;-52
2021/07/31 06:21:05;;;;;;;2.53;1.98;;;;;;;;;;5068481;28;20033;-52
2021/07/31 06:23:31;;;;;;;8.15;2.50;;;;;;;;;;5074167;28;20052;-51
2021/07/31 06:26:03;;;;;;;4.30;2.10;;;;;;;;;;5074491;28;20090;-52
2021/07/31 06:28:29;;;;;;;6.13;2.42;;;;;;;;;;5074729;28;20405;-51
2021/07/31 06:30:55;;;;;;;3.60;2.45;;;;;;;;;;5068586;28;20130;-52
2021/07/31 06:33:21;;;;;;;5.68;2.40;;;;;;;;;;5073743;28;20474;-51
2021/07/31 06:35:47;;;;;;;5.68;2.50;;;;;;;;;;5059233;28;20029;-52
2021/07/31 06:38:13;;;;;;;2.97;2.28;;;;;;;;;;5054033;28;20037;-52
2021/07/31 06:40:42;;;;;;;5.70;3.10;;;;;;;;;;5051822;28;20021;-52
2021/07/31 06:43:08;;;;;;;10.82;2.90;;;;;;;;;;5069185;28;20085;-52
2021/07/31 06:45:34;;;;;;;4.68;2.50;;;;;;;;;;5070913;28;20021;-52
2021/07/31 06:48:00;;;;;;;4.78;2.63;;;;;;;;;;5068887;28;20033;-51
2021/07/31 06:50:26;;;;;;;7.65;2.70;;;;;;;;;;5072415;28;20021;-52
2021/07/31 06:52:52;;;;;;;7.70;3.08;;;;;;;;;;5069862;28;20082;-52
2021/07/31 06:55:18;;;;;;;6.97;2.20;;;;;;;;;;5073490;28;20278;-52
2021/07/31 06:57:44;;;;;;;5.07;1.98;;;;;;;;;;5073714;28;20078;-52
2021/07/31 07:00:10;;;;;;;9.70;2.40;;;;;;;;;;5074307;28;20024;-52
2021/07/31 07:02:36;;;;;;;7.45;2.50;;;;;;;;;;5072989;28;20029;-52
2021/07/31 07:05:02;;;;;;;7.47;2.50;;;;;;;;;;5074096;28;20147;-52
2021/07/31 07:07:28;;;;;;;4.85;2.33;;;;;;;;;;5074052;28;20029;-52
2021/07/31 07:09:54;;;;;;;2.55;1.83;;;;;;;;;;5073596;28;20024;-51
2021/07/31 07:12:20;;;;;;;2.97;2.50;;;;;;;;;;5067677;28;20034;-52
2021/07/31 07:14:46;;;;;;;8.00;2.10;;;;;;;;;;5064570;28;20104;-51
2021/07/31 07:17:12;;;;;;;2.75;1.80;;;;;;;;;;5072849;28;20477;-50
2021/07/31 07:19:38;;;;;;;5.82;2.38;;;;;;;;;;5073125;28;20450;-51
2021/07/31 07:22:04;;;;;;;2.63;1.70;;;;;;;;;;5072220;28;20089;-51
2021/07/31 07:24:30;;;;;;;5.40;1.60;;;;;;;;;;5072491;28;20021;-51
2021/07/31 07:26:56;;;;;;;2.38;1.75;;;;;;;;;;5067589;28;20023;-51
2021/07/31 07:29:22;;;;;;;2.75;2.00;;;;;;;;;;5068288;28;20508;-51
2021/07/31 07:31:48;;;;;;;8.02;2.10;;;;;;;;;;5069853;28;20016;-51
2021/07/31 07:34:14;;;;;;;6.15;2.65;;;;;;;;;;5069048;28;20031;-50
2021/07/31 07:36:40;;;;;;;6.57;1.90;;;;;;;;;;5073049;28;20377;-50
2021/07/31 07:39:06;;;;;;;3.50;2.25;;;;;;;;;;5073170;28;20024;-51
2021/07/31 07:41:32;;;;;;;5.40;2.00;;;;;;;;;;5072289;28;20082;-50
2021/07/31 07:43:58;;;;;;;3.58;2.33;;;;;;;;;;5073114;28;20017;-51
2021/07/31 07:46:24;;;;;;;3.05;2.22;;;;;;;;;;5072599;28;20145;-50
2021/07/31 07:48:51;;;;;;;4.00;3.08;;;;;;;;;;5073353;28;20505;-50
2021/07/31 07:51:17;;;;;;;5.68;2.45;;;;;;;;;;5071980;28;20028;-50
2021/07/31 07:53:43;;;;;;;4.32;2.42;;;;;;;;;;5072820;28;20108;-50
2021/07/31 07:56:09;;;;;;;4.65;2.47;;;;;;;;;;5072953;28;20134;-50
2021/07/31 07:58:35;;;;;;;5.65;2.70;;;;;;;;;;5073025;28;20493;-50
2021/07/31 08:01:01;;;;;;;8.23;2.53;;;;;;;;;;5071524;28;20024;-50
2021/07/31 08:03:27;;;;;;;6.45;2.15;;;;;;;;;;5072769;28;20085;-50
2021/07/31 08:05:53;;;;;;;4.45;2.50;;;;;;;;;;5071297;28;20023;-50
2021/07/31 08:08:19;;;;;;;4.07;2.15;;;;;;;;;;5062793;28;20090;-50
2021/07/31 08:10:45;;;;;;;2.85;1.90;;;;;;;;;;5071301;28;20064;-50
2021/07/31 08:13:11;;;;;;;3.33;1.95;;;;;;;;;;5072508;28;20017;-50
2021/07/31 08:15:37;;;;;;;4.70;2.40;;;;;;;;;;5053238;28;20082;-50
2021/07/31 08:18:03;;;;;;;5.18;2.25;;;;;;;;;;5060437;28;20036;-50
2021/07/31 08:20:29;;;;;;;3.15;2.22;;;;;;;;;;5066745;28;20028;-50
2021/07/31 08:22:55;;;;;;;10.30;2.47;;;;;;;;;;5071698;28;20029;-50
2021/07/31 08:25:21;;;;;;;3.65;2.15;;;;;;;;;;5070229;28;20110;-50
2021/07/31 08:27:47;;;;;;;2.70;2.00;;;;;;;;;;5072650;28;20446;-50
2021/07/31 08:30:13;;;;;;;4.95;2.42;;;;;;;;;;5070873;28;20020;-50
2021/07/31 08:32:39;;;;;;;3.72;2.30;;;;;;;;;;5066294;28;20017;-50
2021/07/31 08:35:05;;;;;;;6.47;2.28;;;;;;;;;;5062247;28;20027;-50
2021/07/31 08:37:35;;;;;;;9.15;2.72;;;;;;;;;;5067999;28;20036;-51
2021/07/31 08:40:01;;;;;;;5.03;2.13;;;;;;;;;;5070212;28;20020;-50
2021/07/31 08:42:27;;;;;;;5.97;2.72;;;;;;;;;;5071113;28;20102;-50
2021/07/31 08:44:54;;;;;;;7.03;2.78;;;;;;;;;;5068552;28;20024;-51
2021/07/31 08:47:22;;;;;;;2.05;1.65;;;;;;;;;;5070073;28;20031;-50
2021/07/31 08:49:48;;;;;;;3.45;2.15;;;;;;;;;;5064503;28;20048;-50
2021/07/31 08:52:15;;;;;;;7.85;2.08;;;;;;;;;;5071047;28;20029;-50
2021/07/31 08:54:41;;;;;;;3.55;1.98;;;;;;;;;;5064681;28;20108;-50
2021/07/31 08:57:07;;;;;;;2.67;1.77;;;;;;;;;;5059658;28;20044;-51
2021/07/31 08:59:33;;;;;;;5.72;2.10;;;;;;;;;;5060739;28;20021;-50
2021/07/31 09:02:00;;;;;;;5.32;1.92;;;;;;;;;;5065030;28;20054;-50
2021/07/31 09:04:27;;;;;;;3.15;1.83;;;;;;;;;;5072249;28;20021;-51
2021/07/31 09:06:53;;;;;;;1.42;1.33;;;;;;;;;;5073963;28;20028;-50
2021/07/31 09:09:27;;;;;;;2.28;1.27;;;;;;;;;;5075710;28;20032;-51
2021/07/31 09:11:59;;;;;;;3.83;1.52;;;;;;;;;;5075250;28;20020;-50
2021/07/31 09:14:25;;;;;;;1.90;1.23;;;;;;;;;;5075954;28;20335;-50
2021/07/31 09:16:51;;;;;;;5.53;2.75;;;;;;;;;;5075202;28;20434;-50
2021/07/31 09:19:17;;;;;;;2.70;1.30;;;;;;;;;;5075960;28;20027;-50
2021/07/31 09:21:44;;;;;;;2.30;1.38;;;;;;;;;;5074747;28;20074;-50
2021/07/31 09:24:15;;;;;;;2.88;1.20;;;;;;;;;;5075643;28;20032;-51
2021/07/31 09:26:46;;;;;;;4.32;1.65;;;;;;;;;;5075742;28;20047;-50
2021/07/31 09:29:13;;;;;;;5.95;1.58;;;;;;;;;;5075189;28;20453;-50
2021/07/31 09:31:51;;;;;;;4.05;1.45;;;;;;;;;;5075107;28;20032;-50
2021/07/31 09:34:50;;;;;;;6.00;1.40;;;;;;;;;;5073185;28;20025;-51
2021/07/31 09:37:23;;;;;;;2.70;1.30;;;;;;;;;;5053038;28;20092;-50
2021/07/31 09:39:54;;;;;;;2.95;1.75;;;;;;;;;;5052152;28;20037;-50
2021/07/31 09:42:36;;;;;;;2.92;1.75;;;;;;;;;;5051979;28;20028;-50
2021/07/31 09:45:07;;;;;;;2.13;1.20;;;;;;;;;;5053002;28;20064;-51
2021/07/31 09:47:33;;;;;;;3.72;2.10;;;;;;;;;;5052658;28;20098;-50
2021/07/31 09:49:59;;;;;;;6.57;2.70;;;;;;;;;;5052432;28;20029;-50
2021/07/31 09:52:25;;;;;;;5.78;1.92;;;;;;;;;;5051912;28;20582;-50
2021/07/31 09:54:53;;;;;;;7.18;2.10;;;;;;;;;;5052638;28;20025;-50
2021/07/31 09:57:20;;;;;;;1.90;1.58;;;;;;;;;;5052498;28;20155;-51
2021/07/31 09:59:46;;;;;;;4.40;1.73;;;;;;;;;;5052568;28;20111;-50
2021/07/31 10:02:16;;;;;;;1.83;1.20;;;;;;;;;;5051985;28;20036;-50
2021/07/31 10:04:44;;;;;;;3.20;2.20;;;;;;;;;;5052285;28;20017;-50
2021/07/31 10:07:10;;;;;;;2.00;1.33;;;;;;;;;;5052275;28;20108;-51
2021/07/31 10:09:39;;;;;;;3.65;1.25;;;;;;;;;;5052369;28;20024;-50
2021/07/31 10:12:05;;;;;;;4.68;1.50;;;;;;;;;;5051967;28;20086;-50
2021/07/31 10:14:32;;;;;;;3.50;1.55;;;;;;;;;;5052510;28;20047;-50
2021/07/31 10:16:58;;;;;;;1.77;1.20;;;;;;;;;;5054286;28;20406;-50
2021/07/31 10:19:24;;;;;;;4.75;1.33;;;;;;;;;;5054858;28;20366;-50
2021/07/31 10:21:59;;;;;;;2.45;1.50;;;;;;;;;;5053273;28;20168;-51
2021/07/31 10:24:27;;;;;;;3.75;1.60;;;;;;;;;;5054554;28;20021;-51
2021/07/31 10:27:12;;;;;;;2.20;1.33;;;;;;;;;;5054408;28;20035;-51
2021/07/31 10:29:42;;;;;;;2.13;1.45;;;;;;;;;;5054923;28;20052;-51
2021/07/31 10:32:20;;;;;;;2.90;1.95;;;;;;;;;;5053573;28;20079;-51
2021/07/31 10:34:47;;;;;;;5.03;1.50;;;;;;;;;;5054323;28;20109;-51
2021/07/31 10:37:31;;;;;;;2.40;1.27;;;;;;;;;;5054090;28;20090;-50
2021/07/31 10:40:00;;;;;;;2.40;1.20;;;;;;;;;;5054233;28;20370;-51
2021/07/31 10:42:27;;;;;;;2.60;1.52;;;;;;;;;;5053226;28;20366;-51
2021/07/31 10:45:11;;;;;;;5.55;1.85;;;;;;;;;;5054612;28;20091;-50
2021/07/31 10:47:38;;;;;;;1.83;1.70;;;;;;;;;;5053903;28;20510;-51
2021/07/31 10:50:24;;;;;;;2.35;1.65;;;;;;;;;;5054166;28;20017;-50
2021/07/31 10:52:53;;;;;;;2.13;1.50;;;;;;;;;;5053006;28;20033;-51
2021/07/31 10:55:20;;;;;;;3.17;1.58;;;;;;;;;;5054264;28;20116;-51
2021/07/31 10:57:55;;;;;;;1.90;1.45;;;;;;;;;;5052673;28;20037;-50
2021/07/31 11:00:28;;;;;;;5.03;1.35;;;;;;;;;;5053972;28;20019;-51
2021/07/31 11:02:55;;;;;;;2.55;1.58;;;;;;;;;;5053135;28;20029;-51
2021/07/31 11:05:22;;;;;;;2.65;1.25;;;;;;;;;;5053843;28;20025;-51
2021/07/31 11:07:57;;;;;;;2.25;1.50;;;;;;;;;;5053601;28;20029;-51
2021/07/31 11:10:30;;;;;;;2.15;1.52;;;;;;;;;;5053661;28;20025;-51
2021/07/31 11:12:56;;;;;;;3.38;1.85;;;;;;;;;;5053027;28;20025;-51
2021/07/31 11:15:23;;;;;;;3.22;1.85;;;;;;;;;;5054122;28;20021;-51
2021/07/31 11:17:59;;;;;;;6.13;2.97;;;;;;;;;;5053701;28;20065;-51
2021/07/31 11:20:29;;;;;;;3.17;2.00;;;;;;;;;;5054002;28;20096;-50
2021/07/31 11:22:56;;;;;;;9.32;3.42;;;;;;;;;;5052342;28;20029;-50
2021/07/31 11:25:22;;;;;;;3.13;2.00;;;;;;;;;;5053242;28;20099;-51
2021/07/31 11:27:55;;;;;;;7.55;2.13;;;;;;;;;;5053650;28;20024;-51
2021/07/31 11:30:21;;;;;;;3.55;2.20;;;;;;;;;;5052751;28;20032;-51
2021/07/31 11:32:47;;;;;;;5.90;2.05;;;;;;;;;;5052606;28;20045;-51
2021/07/31 11:35:26;;;;;;;4.28;2.05;;;;;;;;;;5053527;28;20111;-51
2021/07/31 11:37:52;;;;;;;2.67;1.45;;;;;;;;;;5052811;28;20067;-51
2021/07/31 11:40:18;;;;;;;3.42;2.05;;;;;;;;;;5053206;28;20017;-50
2021/07/31 11:42:44;;;;;;;2.17;1.58;;;;;;;;;;5052245;28;20029;-50
2021/07/31 11:45:10;;;;;;;2.22;1.50;;;;;;;;;;5053164;28;20418;-51
2021/07/31 11:47:37;;;;;;;5.88;1.55;;;;;;;;;;5053536;28;20111;-51
2021/07/31 11:50:07;;;;;;;4.25;2.00;;;;;;;;;;5052764;28;20070;-51
2021/07/31 11:52:33;;;;;;;4.50;1.58;;;;;;;;;;5052011;28;20090;-51
2021/07/31 11:54:59;;;;;;;3.85;1.50;;;;;;;;;;5053217;28;20029;-51
2021/07/31 11:57:25;;;;;;;2.42;1.63;;;;;;;;;;5053159;28;20186;-51
2021/07/31 11:59:51;;;;;;;4.18;1.40;;;;;;;;;;5052856;28;20021;-51
2021/07/31 12:02:37;;;;;;;1.80;1.52;;;;;;;;;;5052314;28;20040;-51
2021/07/31 12:05:05;;;;;;;4.07;1.80;;;;;;;;;;5052479;28;20029;-51
2021/07/31 12:07:31;;;;;;;2.38;1.50;;;;;;;;;;5053112;28;20043;-51
2021/07/31 12:10:09;;;;;;;3.47;1.38;;;;;;;;;;5052953;28;20021;-51
2021/07/31 12:12:39;;;;;;;3.65;1.80;;;;;;;;;;5052064;28;20017;-50
2021/07/31 12:15:08;;;;;;;2.80;1.33;;;;;;;;;;5052977;28;20050;-50
2021/07/31 12:17:34;;;;;;;2.08;1.42;;;;;;;;;;5052423;28;20045;-50
2021/07/31 12:20:00;;;;;;;8.85;2.13;;;;;;;;;;5057131;28;20138;-51
2021/07/31 12:22:30;;;;;;;3.60;1.60;;;;;;;;;;5071402;28;20354;-51
2021/07/31 12:25:11;;;;;;;2.30;1.55;;;;;;;;;;5072362;28;20021;-51
2021/07/31 12:28:00;;;;;;;3.38;1.50;;;;;;;;;;5064765;28;20055;-51
2021/07/31 12:30:27;;;;;;;1.83;1.25;;;;;;;;;;5069542;28;20016;-51
2021/07/31 12:32:54;;;;;;;3.17;1.58;;;;;;;;;;5070358;28;20020;-51
2021/07/31 12:35:40;;;;;;;12.82;2.20;;;;;;;;;;5071062;28;20058;-51
2021/07/31 12:38:07;;;;;;;2.45;1.50;;;;;;;;;;5072483;28;20090;-51
2021/07/31 12:40:33;;;;;;;2.72;1.60;;;;;;;;;;5071294;28;20021;-51
2021/07/31 12:43:00;;;;;;;4.90;1.95;;;;;;;;;;5075893;28;20028;-51
2021/07/31 12:45:27;;;;;;;3.55;1.50;;;;;;;;;;5076589;28;20021;-51
2021/07/31 12:47:53;;;;;;;6.22;1.63;;;;;;;;;;5072901;28;20271;-51
2021/07/31 12:50:19;;;;;;;6.13;1.33;;;;;;;;;;5065204;28;20108;-51
2021/07/31 12:52:45;;;;;;;5.75;1.35;;;;;;;;;;5074359;28;20110;-51
2021/07/31 12:55:11;;;;;;;2.70;1.80;;;;;;;;;;5076149;28;20029;-51
2021/07/31 12:57:37;;;;;;;1.38;1.13;;;;;;;;;;5072488;28;20530;-51
2021/07/31 13:00:04;;;;;;;1.42;1.20;;;;;;;;;;5074451;28;20024;-51
2021/07/31 13:02:30;;;;;;;3.08;1.35;;;;;;;;;;5075310;28;20032;-51
2021/07/31 13:04:56;;;;;;;2.67;1.52;;;;;;;;;;5071258;28;20028;-51
2021/07/31 13:07:22;;;;;;;2.08;1.50;;;;;;;;;;5070856;28;20120;-51
2021/07/31 13:09:48;;;;;;;1.63;1.30;;;;;;;;;;5064175;28;20107;-51
2021/07/31 13:12:14;;;;;;;2.65;1.50;;;;;;;;;;5064170;28;20036;-52
2021/07/31 13:14:40;;;;;;;2.47;1.27;;;;;;;;;;5065986;28;20017;-51
2021/07/31 13:17:06;;;;;;;2.33;1.67;;;;;;;;;;5064205;28;20036;-51
2021/07/31 13:19:32;;;;;;;1.95;1.40;;;;;;;;;;5073260;28;20071;-51
2021/07/31 13:21:58;;;;;;;5.47;1.33;;;;;;;;;;5074282;28;20040;-50
2021/07/31 13:24:24;;;;;;;2.22;1.40;;;;;;;;;;5075554;28;20028;-51
2021/07/31 13:26:50;;;;;;;1.55;1.35;;;;;;;;;;5058363;28;20082;-51
2021/07/31 13:29:17;;;;;;;2.33;1.35;;;;;;;;;;5055804;28;20033;-51
2021/07/31 13:31:46;;;;;;;11.68;1.70;;;;;;;;;;5071599;28;20423;-50
2021/07/31 13:34:13;;;;;;;2.33;1.40;;;;;;;;;;5073901;28;20032;-50
2021/07/31 13:36:39;;;;;;;1.83;1.50;;;;;;;;;;5054883;28;20029;-50
2021/07/31 13:39:05;;;;;;;3.67;1.50;;;;;;;;;;5054963;28;20473;-50
2021/07/31 13:41:31;;;;;;;2.65;1.25;;;;;;;;;;5054694;28;20033;-50
2021/07/31 13:44:00;;;;;;;3.63;1.52;;;;;;;;;;5055010;28;20335;-51
2021/07/31 13:46:26;;;;;;;3.53;1.30;;;;;;;;;;5054862;28;20527;-50
2021/07/31 13:48:52;;;;;;;2.67;1.50;;;;;;;;;;5056931;28;20029;-50
2021/07/31 13:51:18;;;;;;;3.25;1.08;;;;;;;;;;5068957;28;20374;-51
2021/07/31 13:53:44;;;;;;;2.15;1.67;;;;;;;;;;5073165;28;20070;-50
2021/07/31 13:56:10;;;;;;;2.95;0.95;;;;;;;;;;5075179;28;20048;-51
2021/07/31 13:58:38;;;;;;;3.95;1.00;;;;;;;;;;5074889;28;20056;-50
2021/07/31 14:01:04;;;;;;;4.50;1.30;;;;;;;;;;5074004;28;20032;-50
2021/07/31 14:03:34;;;;;;;1.83;1.23;;;;;;;;;;5074913;28;20354;-51
2021/07/31 14:06:00;;;;;;;1.70;1.40;;;;;;;;;;5075019;28;20512;-51
2021/07/31 14:08:26;;;;;;;1.60;1.50;;;;;;;;;;5074945;28;20017;-51
2021/07/31 14:10:52;;;;;;;1.13;1.02;;;;;;;;;;5073779;28;20334;-51
2021/07/31 14:13:18;;;;;;;3.60;1.35;;;;;;;;;;5074993;28;20345;-50
2021/07/31 14:15:44;;;;;;;3.47;1.30;;;;;;;;;;5074062;28;20025;-51
2021/07/31 14:18:11;;;;;;;2.55;1.38;;;;;;;;;;5074219;28;20048;-51
2021/07/31 14:20:39;;;;;;;3.55;1.00;;;;;;;;;;5073966;28;20027;-51
2021/07/31 14:23:05;;;;;;;1.85;1.25;;;;;;;;;;5074152;28;20042;-52
2021/07/31 14:25:31;;;;;;;1.92;1.20;;;;;;;;;;5074622;28;20020;-51
2021/07/31 14:27:57;;;;;;;3.90;1.38;;;;;;;;;;5074562;28;20442;-50
2021/07/31 14:30:23;;;;;;;1.17;0.98;;;;;;;;;;5074215;28;20107;-51
2021/07/31 14:32:50;;;;;;;1.98;1.33;;;;;;;;;;5073691;28;20082;-51
2021/07/31 14:35:16;;;;;;;2.88;1.17;;;;;;;;;;5062380;28;20029;-51
2021/07/31 14:37:42;;;;;;;1.60;1.13;;;;;;;;;;5053825;28;20065;-51
2021/07/31 14:40:08;;;;;;;4.82;2.22;;;;;;;;;;5053500;28;20024;-51
2021/07/31 14:42:34;;;;;;;1.92;1.10;;;;;;;;;;5052915;28;20027;-51